createdAt,value
2019-06-07T00:00:42.307Z,11.60
2019-06-07T00:03:23.992Z,11.60
2019-06-07T00:05:40.935Z,11.70
2019-06-07T00:08:17.080Z,11.70
2019-06-07T00:10:39.519Z,11.70
2019-06-07T00:13:09.559Z,11.60
2019-06-07T00:15:38.184Z,11.60
2019-06-07T00:18:12.252Z,11.60
2019-06-07T00:20:37.003Z,11.40
2019-06-07T00:23:05.438Z,11.60
2019-06-07T00:25:33.871Z,11.60
2019-06-07T00:28:02.309Z,11.60
2019-06-07T00:30:42.386Z,11.50
2019-06-07T00:33:00.913Z,11.40
2019-06-07T00:35:29.339Z,11.50
2019-06-07T00:37:57.799Z,11.50
2019-06-07T00:40:31.722Z,11.20
2019-06-07T00:42:56.391Z,11.30
2019-06-07T00:45:25.007Z,11.30
2019-06-07T00:47:53.476Z,11.20
2019-06-07T00:50:24.092Z,11.20
2019-06-07T00:53:14.699Z,11.40
2019-06-07T00:55:27.066Z,11.30
2019-06-07T00:57:52.396Z,11.30
2019-06-07T01:00:25.337Z,11.30
2019-06-07T01:02:52.595Z,11.50
2019-06-07T01:05:28.145Z,11.40
2019-06-07T01:07:51.197Z,11.60
2019-06-07T01:10:46.315Z,11.60
2019-06-07T01:12:50.257Z,11.70
2019-06-07T01:15:28.549Z,11.80
2019-06-07T01:18:32.870Z,11.60
2019-06-07T01:20:26.284Z,11.70
2019-06-07T01:22:54.353Z,16.00
2019-06-07T01:25:26.208Z,18.90
2019-06-07T01:27:52.940Z,19.60
2019-06-07T01:30:26.487Z,20.30
2019-06-07T01:32:54.250Z,19.50
2019-06-07T01:35:23.864Z,16.60
2019-06-07T01:37:53.003Z,14.50
2019-06-07T01:40:28.838Z,13.50
2019-06-07T01:42:51.606Z,12.80
2019-06-07T01:45:21.327Z,12.00
2019-06-07T01:47:49.908Z,11.60
2019-06-07T01:50:22.578Z,11.00
2019-06-07T01:52:48.709Z,9.90
2019-06-07T01:55:18.827Z,9.60
2019-06-07T01:57:48.725Z,9.20
2019-06-07T02:00:21.650Z,8.80
2019-06-07T02:02:48.904Z,8.90
2019-06-07T02:05:19.138Z,9.20
2019-06-07T02:07:47.743Z,8.70
2019-06-07T02:10:16.838Z,8.50
2019-06-07T02:12:45.251Z,8.80
2019-06-07T02:15:15.024Z,9.10
2019-06-07T02:17:43.455Z,9.20
2019-06-07T02:20:12.047Z,9.20
2019-06-07T02:22:40.486Z,8.80
2019-06-07T02:27:39.215Z,8.80
2019-06-07T02:30:37.272Z,8.90
2019-06-07T02:32:38.640Z,8.80
2019-06-07T02:35:07.525Z,8.80
2019-06-07T02:37:37.188Z,9.00
2019-06-07T02:40:09.167Z,8.90
2019-06-07T02:42:42.250Z,9.20
2019-06-07T02:45:10.719Z,9.30
2019-06-07T02:47:39.670Z,9.40
2019-06-07T02:50:11.793Z,8.80
2019-06-07T02:52:41.456Z,9.10
2019-06-07T02:55:10.850Z,8.80
2019-06-07T02:57:41.862Z,8.70
2019-06-07T03:00:41.801Z,8.60
2019-06-07T03:02:45.570Z,8.70
2019-06-07T03:05:14.253Z,8.90
2019-06-07T03:07:45.367Z,9.10
2019-06-07T03:10:14.267Z,9.20
2019-06-07T03:12:44.321Z,9.10
2019-06-07T03:15:32.154Z,8.60
2019-06-07T03:17:50.660Z,8.90
2019-06-07T03:20:20.889Z,8.40
2019-06-07T03:22:51.079Z,8.30
2019-06-07T03:25:19.577Z,8.40
2019-06-07T03:27:50.184Z,8.40
2019-06-07T03:32:49.335Z,8.50
2019-06-07T03:35:17.754Z,8.40
2019-06-07T03:37:46.186Z,8.60
2019-06-07T03:40:14.748Z,8.50
2019-06-07T03:42:43.197Z,8.40
2019-06-07T03:45:11.699Z,8.50
2019-06-07T03:47:42.592Z,8.80
2019-06-07T03:50:10.354Z,8.50
2019-06-07T03:52:41.264Z,8.20
2019-06-07T03:55:09.032Z,8.50
2019-06-07T03:58:29.226Z,8.60
2019-06-07T04:00:07.952Z,8.40
2019-06-07T04:02:40.829Z,8.60
2019-06-07T04:05:07.323Z,8.40
2019-06-07T04:07:36.939Z,8.40
2019-06-07T04:10:07.145Z,8.20
2019-06-07T04:12:40.037Z,8.50
2019-06-07T04:15:06.176Z,8.50
2019-06-07T04:17:36.433Z,8.40
2019-06-07T04:20:06.279Z,8.50
2019-06-07T04:22:38.844Z,8.70
2019-06-07T04:25:07.945Z,8.70
2019-06-07T04:27:39.231Z,8.90
2019-06-07T04:30:08.364Z,8.80
2019-06-07T04:32:40.585Z,8.60
2019-06-07T04:35:07.905Z,8.70
2019-06-07T04:37:41.024Z,8.80
2019-06-07T04:40:08.440Z,8.80
2019-06-07T04:42:41.399Z,8.90
2019-06-07T04:45:32.340Z,8.60
2019-06-07T04:47:42.607Z,8.80
2019-06-07T04:50:11.527Z,8.80
2019-06-07T04:52:42.803Z,8.70
2019-06-07T04:55:10.251Z,8.80
2019-06-07T04:57:40.382Z,8.50
2019-06-07T05:00:46.302Z,8.50
2019-06-07T05:02:42.412Z,8.60
2019-06-07T05:05:09.454Z,8.80
2019-06-07T05:07:39.976Z,8.90
2019-06-07T05:10:08.221Z,9.00
2019-06-07T05:12:41.538Z,9.00
2019-06-07T05:15:06.828Z,9.00
2019-06-07T05:17:37.013Z,8.80
2019-06-07T05:20:06.555Z,8.90
2019-06-07T05:22:40.041Z,9.00
2019-06-07T05:25:05.944Z,9.00
2019-06-07T05:27:36.440Z,9.20
2019-06-07T05:30:13.546Z,9.10
2019-06-07T05:32:37.611Z,9.20
2019-06-07T05:35:07.467Z,9.40
2019-06-07T05:37:38.029Z,9.40
2019-06-07T05:40:07.929Z,9.50
2019-06-07T05:42:40.224Z,9.60
2019-06-07T05:45:07.118Z,9.60
2019-06-07T05:47:40.108Z,9.90
2019-06-07T05:50:37.905Z,10.10
2019-06-07T05:52:39.887Z,10.20
2019-06-07T05:55:06.982Z,10.50
2019-06-07T05:57:38.062Z,10.80
2019-06-07T06:00:07.300Z,11.00
2019-06-07T06:02:58.645Z,10.90
2019-06-07T06:05:06.544Z,10.90
2019-06-07T06:07:38.862Z,11.20
2019-06-07T06:10:07.946Z,11.50
2019-06-07T06:12:40.595Z,11.80
2019-06-07T06:15:08.414Z,11.60
2019-06-07T06:17:40.655Z,11.60
2019-06-07T06:20:07.738Z,11.80
2019-06-07T06:22:37.412Z,11.50
2019-06-07T06:28:09.064Z,12.10
2019-06-07T06:30:13.681Z,12.20
2019-06-07T06:32:50.739Z,12.40
2019-06-07T06:35:13.909Z,12.40
2019-06-07T06:37:48.973Z,12.60
2019-06-07T06:40:12.987Z,12.80
2019-06-07T06:42:42.233Z,12.50
2019-06-07T06:45:11.551Z,12.30
2019-06-07T06:47:40.754Z,12.40
2019-06-07T06:50:10.380Z,12.70
2019-06-07T06:52:42.261Z,12.30
2019-06-07T06:55:10.073Z,12.60
2019-06-07T06:57:41.463Z,12.60
2019-06-07T07:00:10.747Z,12.60
2019-06-07T07:03:27.126Z,12.90
2019-06-07T07:05:10.794Z,12.90
2019-06-07T07:07:40.284Z,13.10
2019-06-07T07:10:09.549Z,13.00
2019-06-07T07:12:38.242Z,13.10
2019-06-07T07:15:09.297Z,13.30
2019-06-07T07:17:51.028Z,13.40
2019-06-07T07:20:07.878Z,13.40
2019-06-07T07:22:36.316Z,13.50
2019-06-07T07:25:07.079Z,13.60
2019-06-07T07:27:35.638Z,13.40
2019-06-07T07:30:35.284Z,13.70
2019-06-07T07:32:36.655Z,13.60
2019-06-07T07:35:08.154Z,13.70
2019-06-07T07:37:36.585Z,13.70
2019-06-07T07:42:56.679Z,13.60
2019-06-07T07:45:24.681Z,13.80
2019-06-07T07:48:10.564Z,14.00
2019-06-07T07:50:23.304Z,14.00
2019-06-07T07:52:55.956Z,14.20
2019-06-07T07:55:21.923Z,14.40
2019-06-07T07:57:58.124Z,15.00
2019-06-07T08:00:50.024Z,15.00
2019-06-07T08:02:58.486Z,14.90
2019-06-07T08:05:41.517Z,14.90
2019-06-07T08:07:56.726Z,15.00
2019-06-07T08:10:24.187Z,14.60
2019-06-07T08:13:15.861Z,14.70
2019-06-07T08:15:22.929Z,15.10
2019-06-07T08:17:55.999Z,15.30
2019-06-07T08:20:21.764Z,15.20
2019-06-07T08:22:50.192Z,15.60
2019-06-07T08:25:19.077Z,16.00
2019-06-07T08:27:47.600Z,16.00
2019-06-07T08:30:47.219Z,15.90
2019-06-07T08:32:50.984Z,16.30
2019-06-07T08:36:01.283Z,15.80
2019-06-07T08:40:18.445Z,15.90
2019-06-07T08:43:03.204Z,16.00
2019-06-07T08:45:17.793Z,16.10
2019-06-07T08:47:46.243Z,16.10
2019-06-07T08:50:15.318Z,16.10
2019-06-07T08:52:43.789Z,16.40
2019-06-07T08:55:12.407Z,16.80
2019-06-07T08:57:40.852Z,16.70
2019-06-07T09:00:42.540Z,16.70
2019-06-07T09:02:40.785Z,17.30
2019-06-07T09:05:12.413Z,17.40
2019-06-07T09:07:39.674Z,17.50
2019-06-07T09:10:14.104Z,18.30
2019-06-07T09:12:40.403Z,17.80
2019-06-07T09:15:21.427Z,17.70
2019-06-07T09:18:29.299Z,18.20
2019-06-07T09:20:35.159Z,18.30
2019-06-07T09:22:43.133Z,17.70
2019-06-07T09:25:20.630Z,18.10
2019-06-07T09:27:42.839Z,18.30
2019-06-07T09:30:18.405Z,18.50
2019-06-07T09:32:42.217Z,19.00
2019-06-07T09:35:16.937Z,19.20
2019-06-07T09:38:07.364Z,19.20
2019-06-07T09:40:24.862Z,19.20
2019-06-07T09:42:42.521Z,18.60
2019-06-07T09:45:13.740Z,18.70
2019-06-07T09:47:41.298Z,18.90
2019-06-07T09:50:12.366Z,19.50
2019-06-07T09:52:56.921Z,19.60
2019-06-07T09:55:22.996Z,19.50
2019-06-07T09:57:40.427Z,19.80
2019-06-07T10:00:39.220Z,20.50
2019-06-07T10:02:44.148Z,20.40
2019-06-07T10:05:14.327Z,20.00
2019-06-07T10:07:59.566Z,20.40
2019-06-07T10:12:44.066Z,19.90
2019-06-07T10:15:12.648Z,20.20
2019-06-07T10:17:41.277Z,20.50
2019-06-07T10:20:10.082Z,20.20
2019-06-07T10:22:59.410Z,21.40
2019-06-07T10:25:28.069Z,20.40
2019-06-07T10:27:56.496Z,21.00
2019-06-07T10:30:25.005Z,20.60
2019-06-07T10:32:53.459Z,21.00
2019-06-07T10:35:21.870Z,20.50
2019-06-07T10:37:50.336Z,20.90
2019-06-07T10:40:19.054Z,20.70
2019-06-07T10:42:47.542Z,20.80
2019-06-07T10:45:16.212Z,20.80
2019-06-07T10:47:44.657Z,20.50
2019-06-07T10:50:13.718Z,20.70
2019-06-07T10:52:42.168Z,21.00
2019-06-07T10:55:10.930Z,20.60
2019-06-07T10:57:39.432Z,21.20
2019-06-07T11:00:09.404Z,21.50
2019-06-07T11:02:38.270Z,21.70
2019-06-07T11:05:08.149Z,21.40
2019-06-07T11:07:37.195Z,21.90
2019-06-07T11:10:13.366Z,22.60
2019-06-07T11:12:37.473Z,21.90
2019-06-07T11:15:08.867Z,22.40
2019-06-07T11:17:37.567Z,22.30
2019-06-07T11:20:10.283Z,22.00
2019-06-07T11:22:38.935Z,21.60
2019-06-07T11:25:09.103Z,22.20
2019-06-07T11:27:37.957Z,22.60
2019-06-07T11:30:10.523Z,22.10
2019-06-07T11:32:39.171Z,23.10
2019-06-07T11:35:08.639Z,22.30
2019-06-07T11:37:37.073Z,22.30
2019-06-07T11:40:24.007Z,22.60
2019-06-07T11:42:36.881Z,22.30
2019-06-07T11:45:10.235Z,22.20
2019-06-07T11:47:38.775Z,22.60
2019-06-07T11:50:09.455Z,23.20
2019-06-07T11:52:38.224Z,22.80
2019-06-07T11:55:09.065Z,23.00
2019-06-07T11:57:37.911Z,23.80
2019-06-07T12:00:13.631Z,23.60
2019-06-07T12:02:42.178Z,22.80
2019-06-07T12:05:14.855Z,23.30
2019-06-07T12:07:41.091Z,23.80
2019-06-07T12:10:10.849Z,23.60
2019-06-07T12:12:39.502Z,23.60
2019-06-07T12:15:08.815Z,23.30
2019-06-07T12:17:37.376Z,23.60
2019-06-07T12:20:08.793Z,24.00
2019-06-07T12:22:37.187Z,23.60
2019-06-07T12:25:07.166Z,23.90
2019-06-07T12:27:35.658Z,23.90
2019-06-07T12:30:11.160Z,24.30
2019-06-07T12:32:36.888Z,24.00
2019-06-07T12:35:08.597Z,24.10
2019-06-07T12:37:43.875Z,23.80
2019-06-07T12:40:08.442Z,24.30
2019-06-07T12:42:37.299Z,24.20
2019-06-07T12:45:07.535Z,24.00
2019-06-07T12:47:36.027Z,24.00
2019-06-07T12:50:07.504Z,24.20
2019-06-07T12:52:36.067Z,24.10
2019-06-07T12:55:09.383Z,24.20
2019-06-07T12:57:37.798Z,24.50
2019-06-07T13:00:11.078Z,25.10
2019-06-07T13:02:39.502Z,25.00
2019-06-07T13:05:08.797Z,24.90
2019-06-07T13:07:37.217Z,25.00
2019-06-07T13:10:09.336Z,24.50
2019-06-07T13:12:37.759Z,25.10
2019-06-07T13:15:07.271Z,24.90
2019-06-07T13:17:36.340Z,24.80
2019-06-07T13:20:07.707Z,24.70
2019-06-07T13:22:36.285Z,24.80
2019-06-07T13:25:06.144Z,25.30
2019-06-07T13:27:34.574Z,25.60
2019-06-07T13:30:09.909Z,25.80
2019-06-07T13:32:33.792Z,26.10
2019-06-07T13:35:02.376Z,26.20
2019-06-07T13:37:30.812Z,26.20
2019-06-07T13:39:59.320Z,26.30
2019-06-07T13:42:28.632Z,26.20
2019-06-07T13:44:57.268Z,25.50
2019-06-07T13:47:25.729Z,25.60
2019-06-07T13:49:55.658Z,25.50
2019-06-07T13:52:24.214Z,25.70
2019-06-07T13:54:52.648Z,26.10
2019-06-07T13:57:22.239Z,25.80
2019-06-07T13:59:50.889Z,25.60
2019-06-07T14:02:20.660Z,25.60
2019-06-07T14:04:49.339Z,26.10
2019-06-07T14:07:19.059Z,25.80
2019-06-07T14:09:47.785Z,26.00
2019-06-07T14:12:16.211Z,25.90
2019-06-07T14:14:44.727Z,26.30
2019-06-07T14:17:13.171Z,26.40
2019-06-07T14:19:41.589Z,26.10
2019-06-07T14:22:10.103Z,26.30
2019-06-07T14:24:38.522Z,26.60
2019-06-07T14:27:07.037Z,26.40
2019-06-07T14:29:39.236Z,26.40
2019-06-07T14:32:08.240Z,26.40
2019-06-07T14:34:36.940Z,26.60
2019-06-07T14:37:06.130Z,26.20
2019-06-07T14:39:34.589Z,26.40
2019-06-07T14:42:09.146Z,26.20
2019-06-07T14:44:33.886Z,26.60
2019-06-07T14:47:02.646Z,26.60
2019-06-07T14:49:32.542Z,26.40
2019-06-07T14:52:01.276Z,26.70
2019-06-07T14:54:33.441Z,26.80
2019-06-07T14:57:03.031Z,26.60
2019-06-07T14:59:30.464Z,26.70
2019-06-07T15:01:59.142Z,26.80
2019-06-07T15:04:28.586Z,26.70
2019-06-07T15:06:57.220Z,26.60
2019-06-07T15:09:26.896Z,26.90
2019-06-07T15:11:56.112Z,26.90
2019-06-07T15:14:24.594Z,26.80
2019-06-07T15:16:53.038Z,26.70
2019-06-07T15:19:23.971Z,26.60
2019-06-07T15:21:51.722Z,26.70
2019-06-07T15:24:20.156Z,26.80
2019-06-07T15:26:48.617Z,26.60
2019-06-07T15:29:17.144Z,26.60
2019-06-07T15:31:45.651Z,26.70
2019-06-07T15:34:14.079Z,26.60
2019-06-07T15:36:42.515Z,26.80
2019-06-07T15:39:10.946Z,26.90
2019-06-07T15:41:39.898Z,27.10
2019-06-07T15:44:08.484Z,27.30
2019-06-07T15:46:37.967Z,27.10
2019-06-07T15:49:06.729Z,27.00
2019-06-07T15:51:36.549Z,26.80
2019-06-07T15:54:05.519Z,26.60
2019-06-07T15:56:34.678Z,26.80
2019-06-07T15:59:03.284Z,26.60
2019-06-07T16:01:31.726Z,26.40
2019-06-07T16:04:00.183Z,26.40
2019-06-07T16:06:28.706Z,26.40
2019-06-07T16:08:57.199Z,26.40
2019-06-07T16:11:25.644Z,26.40
2019-06-07T16:13:54.131Z,26.30
2019-06-07T16:16:22.712Z,26.30
2019-06-07T16:18:51.126Z,26.20
2019-06-07T16:21:19.589Z,26.40
2019-06-07T16:23:48.154Z,26.40
2019-06-07T16:26:16.912Z,26.50
2019-06-07T16:28:45.341Z,26.50
2019-06-07T16:31:14.056Z,26.50
2019-06-07T16:33:43.189Z,26.60
2019-06-07T16:36:12.034Z,26.30
2019-06-07T16:38:40.445Z,26.30
2019-06-07T16:41:08.889Z,26.30
2019-06-07T16:43:38.550Z,26.20
2019-06-07T16:46:08.552Z,26.20
2019-06-07T16:48:37.155Z,26.20
2019-06-07T16:51:05.645Z,26.30
2019-06-07T16:53:34.100Z,26.40
2019-06-07T16:56:02.572Z,26.50
2019-06-07T16:58:31.046Z,26.40
2019-06-07T17:00:59.492Z,26.50
2019-06-07T17:03:28.192Z,26.40
2019-06-07T17:05:56.619Z,26.50
2019-06-07T17:08:25.056Z,26.60
2019-06-07T17:10:53.478Z,26.70
2019-06-07T17:13:32.910Z,26.60
2019-06-07T17:15:52.078Z,26.60
2019-06-07T17:18:20.504Z,26.50
2019-06-07T17:20:49.424Z,26.40
2019-06-07T17:23:18.090Z,26.50
2019-06-07T17:25:47.519Z,26.40
2019-06-07T17:28:16.107Z,25.90
2019-06-07T17:30:45.976Z,25.60
2019-06-07T17:33:14.580Z,25.40
2019-06-07T17:35:44.659Z,25.50
2019-06-07T17:38:13.266Z,25.30
2019-06-07T17:40:42.721Z,25.00
2019-06-07T17:43:11.320Z,24.80
2019-06-07T17:45:41.186Z,24.60
2019-06-07T17:48:09.822Z,24.30
2019-06-07T17:50:38.468Z,23.80
2019-06-07T17:53:06.894Z,23.30
2019-06-07T17:55:35.400Z,22.40
2019-06-07T17:58:04.334Z,21.80
2019-06-07T18:00:53.161Z,21.30
2019-06-07T18:03:21.937Z,21.20
2019-06-07T18:05:51.406Z,21.40
2019-06-07T18:08:19.946Z,21.20
2019-06-07T18:10:49.893Z,20.80
2019-06-07T18:13:18.574Z,20.70
2019-06-07T18:15:52.823Z,20.40
2019-06-07T18:18:18.117Z,20.40
2019-06-07T18:20:47.201Z,20.30
2019-06-07T18:23:15.930Z,20.10
2019-06-07T18:25:44.354Z,20.20
2019-06-07T18:28:13.140Z,20.30
2019-06-07T18:30:41.630Z,20.20
2019-06-07T18:33:10.099Z,20.30
2019-06-07T18:35:38.526Z,20.20
2019-06-07T18:38:10.442Z,19.60
2019-06-07T18:40:37.128Z,18.90
2019-06-07T18:43:05.621Z,18.50
2019-06-07T18:45:34.113Z,18.00
2019-06-07T18:48:02.568Z,17.60
2019-06-07T18:50:31.004Z,17.20
2019-06-07T18:52:59.502Z,16.90
2019-06-07T18:55:27.930Z,16.60
2019-06-07T18:57:56.606Z,16.50
2019-06-07T19:00:26.036Z,16.30
2019-06-07T19:02:55.999Z,16.20
2019-06-07T19:05:25.097Z,16.20
2019-06-07T19:07:54.692Z,16.00
2019-06-07T19:10:24.053Z,15.90
2019-06-07T19:12:53.189Z,15.90
2019-06-07T19:15:22.493Z,15.70
2019-06-07T19:17:52.149Z,15.70
2019-06-07T19:20:21.323Z,15.60
2019-06-07T19:22:50.183Z,15.60
2019-06-07T19:25:18.880Z,15.60
2019-06-07T19:27:47.299Z,15.60
2019-06-07T19:30:16.178Z,15.50
2019-06-07T19:32:44.619Z,15.30
2019-06-07T19:35:13.801Z,15.20
2019-06-07T19:37:42.220Z,15.20
2019-06-07T19:40:13.813Z,15.20
2019-06-07T19:42:42.235Z,15.20
2019-06-07T19:45:32.098Z,15.10
2019-06-07T19:47:41.223Z,15.00
2019-06-07T19:50:10.139Z,14.80
2019-06-07T19:52:39.532Z,14.60
2019-06-07T19:55:09.981Z,14.40
2019-06-07T19:57:38.852Z,14.50
2019-06-07T20:00:14.095Z,14.40
2019-06-07T20:02:38.557Z,14.10
2019-06-07T20:05:08.784Z,14.10
2019-06-07T20:07:37.211Z,14.30
2019-06-07T20:10:09.642Z,14.40
2019-06-07T20:12:38.079Z,14.50
2019-06-07T20:15:27.297Z,14.30
2019-06-07T20:17:37.500Z,14.40
2019-06-07T20:20:08.904Z,14.50
2019-06-07T20:22:37.523Z,14.70
2019-06-07T20:25:06.512Z,14.80
2019-06-07T20:27:35.017Z,14.80
2019-06-07T20:30:08.587Z,14.90
2019-06-07T20:32:37.107Z,15.00
2019-06-07T20:35:06.262Z,15.10
2019-06-07T20:37:34.702Z,15.00
2019-06-07T20:40:20.719Z,15.10
2019-06-07T20:42:34.739Z,14.90
2019-06-07T20:45:04.005Z,14.90
2019-06-07T20:47:32.497Z,15.00
2019-06-07T20:50:02.270Z,15.10
2019-06-07T20:52:30.849Z,14.90
2019-06-07T20:55:00.491Z,14.90
2019-06-07T20:57:29.006Z,15.00
2019-06-07T20:59:58.705Z,14.90
2019-06-07T21:02:27.233Z,15.00
2019-06-07T21:04:55.676Z,15.10
2019-06-07T21:07:24.088Z,14.90
2019-06-07T21:09:52.551Z,14.80
2019-06-07T21:12:21.042Z,14.90
2019-06-07T21:14:50.251Z,14.70
2019-06-07T21:17:18.674Z,14.90
2019-06-07T21:19:47.139Z,15.00
2019-06-07T21:22:15.569Z,14.90
2019-06-07T21:24:44.005Z,14.70
2019-06-07T21:27:12.432Z,14.50
2019-06-07T21:29:40.859Z,15.40
2019-06-07T21:32:09.630Z,17.00
2019-06-07T21:34:38.205Z,16.30
2019-06-07T21:37:07.774Z,15.70
2019-06-07T21:39:36.354Z,15.60
2019-06-07T21:42:05.981Z,15.50
2019-06-07T21:44:34.604Z,16.90
2019-06-07T21:47:04.117Z,16.50
2019-06-07T21:49:32.748Z,16.00
2019-06-07T21:52:02.413Z,15.70
2019-06-07T21:54:31.079Z,15.60
2019-06-07T21:56:59.511Z,15.60
2019-06-07T21:59:27.938Z,15.40
2019-06-07T22:01:56.366Z,16.30
2019-06-07T22:04:24.795Z,16.00
2019-06-07T22:06:53.222Z,15.70
2019-06-07T22:09:21.665Z,15.50
2019-06-07T22:11:50.106Z,15.70
2019-06-07T22:14:18.543Z,15.80
2019-06-07T22:16:46.966Z,15.80
2019-06-07T22:19:15.390Z,15.50
2019-06-07T22:21:43.826Z,16.80
2019-06-07T22:24:13.106Z,16.20
2019-06-07T22:26:41.675Z,15.70
2019-06-07T22:29:10.308Z,15.50
2019-06-07T22:31:38.828Z,15.50
2019-06-07T22:34:08.664Z,15.10
2019-06-07T22:36:37.317Z,14.90
2019-06-07T22:39:07.545Z,14.80
2019-06-07T22:41:36.080Z,14.80
2019-06-07T22:44:04.502Z,14.80
2019-06-07T22:46:37.403Z,14.80
2019-06-07T22:49:03.200Z,14.40
2019-06-07T22:51:31.639Z,14.40
2019-06-07T22:54:00.308Z,14.20
2019-06-07T22:56:39.279Z,14.00
2019-06-07T22:59:08.054Z,14.00
2019-06-07T23:01:37.866Z,14.00
2019-06-07T23:04:06.289Z,14.30
2019-06-07T23:06:34.736Z,14.50
2019-06-07T23:09:03.278Z,14.50
2019-06-07T23:11:31.735Z,14.60
2019-06-07T23:14:00.243Z,14.60
2019-06-07T23:16:28.667Z,14.30
2019-06-07T23:18:57.119Z,14.40
2019-06-07T23:21:25.550Z,14.30
2019-06-07T23:23:53.985Z,14.20
2019-06-07T23:26:22.490Z,14.40
2019-06-07T23:28:50.906Z,14.30
2019-06-07T23:31:20.764Z,14.50
2019-06-07T23:33:49.308Z,14.20
2019-06-07T23:36:19.232Z,14.20
2019-06-07T23:38:47.755Z,14.20
2019-06-07T23:41:17.630Z,14.40
2019-06-07T23:43:46.107Z,14.40
2019-06-07T23:46:15.314Z,14.40
2019-06-07T23:48:43.804Z,14.40
2019-06-07T23:51:13.525Z,14.10
2019-06-07T23:53:42.013Z,14.20
2019-06-07T23:56:11.679Z,14.30
2019-06-07T23:58:40.252Z,14.30
